Time;durP1;ratioP1;P1;durP2;ratioP2;P2;SDS_P1;SDS_P2;PMS_P1;PMS_P2;Temp;Humidity;BMP_temperature;BMP_pressure;BME280_temperature;BME280_humidity;BME280_pressure;Samples;Min_cycle;Max_cycle;Signal;HPM_P1;HPM_P2
2022/05/26 00:00:52;;;;;;;1.40;1.30;;;15.40;99.90;;;;;;5016297;28;20419;-82
2022/05/26 00:03:40;;;;;;;3.33;2.03;;;15.50;99.90;;;;;;5039997;28;20389;-82
2022/05/26 00:06:25;;;;;;;1.27;1.17;;;15.60;99.90;;;;;;5045889;28;20398;-84
2022/05/26 00:09:09;;;;;;;1.70;1.60;;;15.50;99.90;;;;;;5044961;28;20406;-81
2022/05/26 00:11:54;;;;;;;7.33;1.53;;;15.70;99.90;;;;;;5058434;28;20477;-83
2022/05/26 00:14:40;;;;;;;1.60;1.50;;;15.80;99.90;;;;;;5044639;28;20440;-82
2022/05/26 00:17:24;;;;;;;2.43;1.60;;;15.70;99.90;;;;;;5057594;28;20893;-82
2022/05/26 00:20:10;;;;;;;1.73;1.63;;;15.70;99.90;;;;;;5057201;28;20909;-83
2022/05/26 00:22:56;;;;;;;2.30;1.60;;;15.80;99.90;;;;;;5028271;28;20394;-83
2022/05/26 00:25:40;;;;;;;1.30;1.20;;;15.70;99.90;;;;;;5042684;28;20436;-83
2022/05/26 00:28:25;;;;;;;1.60;1.50;;;15.70;99.90;;;;;;5028803;28;20882;-83
2022/05/26 00:31:10;;;;;;;2.00;1.57;;;15.80;99.90;;;;;;5057287;28;20802;-83
2022/05/26 00:33:54;;;;;;;1.60;1.30;;;15.80;99.90;;;;;;5058175;28;20389;-83
2022/05/26 00:36:41;;;;;;;1.47;1.37;;;15.60;99.90;;;;;;5060167;28;20904;-83
2022/05/26 00:39:26;;;;;;;2.33;1.40;;;15.80;99.90;;;;;;5059708;28;20398;-83
2022/05/26 00:42:11;;;;;;;12.80;1.63;;;15.50;99.90;;;;;;5060931;28;20421;-83
2022/05/26 00:44:56;;;;;;;2.23;1.70;;;15.40;99.90;;;;;;5061173;28;20394;-83
2022/05/26 00:47:44;;;;;;;2.20;1.50;;;15.30;99.90;;;;;;5061299;28;20393;-83
2022/05/26 00:50:31;;;;;;;1.63;1.53;;;15.30;99.90;;;;;;5061237;28;21012;-82
2022/05/26 00:53:24;;;;;;;1.83;1.20;;;15.20;99.90;;;;;;5046274;28;20421;-83
2022/05/26 00:56:17;;;;;;;4.10;1.30;;;15.20;99.90;;;;;;5062314;28;20437;-83
2022/05/26 00:59:17;;;;;;;1.87;1.30;;;15.40;99.90;;;;;;5062405;28;20382;-83
2022/05/26 01:02:02;;;;;;;1.50;1.40;;;15.40;99.90;;;;;;5060499;28;20437;-83
2022/05/26 01:04:53;;;;;;;1.10;1.00;;;15.60;99.90;;;;;;5061836;28;20453;-82
2022/05/26 01:07:39;;;;;;;1.37;1.20;;;15.50;99.90;;;;;;5061990;28;20465;-83
2022/05/26 01:10:24;;;;;;;2.30;1.60;;;15.60;99.90;;;;;;5061541;28;20481;-83
2022/05/26 01:13:08;;;;;;;1.33;1.23;;;15.60;99.90;;;;;;5046710;28;20397;-83
2022/05/26 01:16:03;;;;;;;1.93;1.63;;;15.60;99.90;;;;;;5064538;28;20432;-84
2022/05/26 01:19:25;;;;;;;2.00;1.50;;;15.60;99.90;;;;;;5060810;28;20434;-81
2022/05/26 01:22:49;;;;;;;1.53;1.43;;;15.50;99.90;;;;;;5038596;28;20473;-82
2022/05/26 01:26:02;;;;;;;1.70;1.27;;;15.60;99.90;;;;;;5048247;28;20709;-82
2022/05/26 01:29:17;;;;;;;1.60;1.50;;;15.80;99.90;;;;;;5060364;28;20787;-82
2022/05/26 01:32:28;;;;;;;3.00;1.50;;;15.90;99.90;;;;;;5061426;28;20961;-83
2022/05/26 01:35:28;;;;;;;1.30;1.20;;;15.90;99.90;;;;;;5062376;28;20438;-84
2022/05/26 01:38:33;;;;;;;5.60;1.80;;;15.90;99.90;;;;;;5063368;28;20397;-84
2022/05/26 01:41:43;;;;;;;1.50;1.40;;;15.90;99.90;;;;;;5068467;28;20425;-83
2022/05/26 01:44:40;;;;;;;1.60;1.50;;;15.80;99.90;;;;;;5062400;28;20393;-82
2022/05/26 01:47:38;;;;;;;1.67;1.57;;;15.50;99.90;;;;;;5061567;28;20463;-83
2022/05/26 01:50:46;;;;;;;4.00;2.37;;;15.40;99.90;;;;;;5060449;28;20397;-83
2022/05/26 01:53:52;;;;;;;1.57;1.47;;;15.30;99.90;;;;;;5045643;28;20389;-82
2022/05/26 01:56:55;;;;;;;1.70;1.60;;;14.90;99.90;;;;;;5059948;28;20468;-83
2022/05/26 01:59:52;;;;;;;1.63;1.53;;;15.00;99.90;;;;;;5060993;28;20402;-83
2022/05/26 02:02:44;;;;;;;2.23;1.50;;;15.00;99.90;;;;;;5060658;28;20418;-83
2022/05/26 02:05:36;;;;;;;2.53;2.20;;;15.00;99.90;;;;;;5060322;28;20439;-83
2022/05/26 02:08:39;;;;;;;1.73;1.63;;;15.10;99.90;;;;;;5060468;28;20469;-83
2022/05/26 02:11:26;;;;;;;4.53;2.00;;;15.10;99.90;;;;;;5019359;28;20440;-83
2022/05/26 02:14:19;;;;;;;2.77;2.33;;;15.20;99.90;;;;;;5046084;28;20466;-83
2022/05/26 02:17:30;;;;;;;2.07;1.73;;;15.30;99.90;;;;;;5059863;28;20421;-83
2022/05/26 02:20:26;;;;;;;1.87;1.40;;;15.20;99.90;;;;;;5059287;28;20394;-83
2022/05/26 02:23:26;;;;;;;1.90;1.77;;;15.20;99.90;;;;;;5061275;28;20386;-85
2022/05/26 02:26:13;;;;;;;1.60;1.50;;;15.30;99.90;;;;;;5074033;28;20410;-83
2022/05/26 02:31:59;;;;;;;6.20;1.67;;;15.10;99.90;;;;;;5066489;28;20620;-83
2022/05/26 02:34:44;;;;;;;1.60;1.50;;;15.20;99.90;;;;;;5058379;28;20456;-83
2022/05/26 02:37:31;;;;;;;2.80;1.57;;;15.20;99.90;;;;;;5057700;28;20409;-83
2022/05/26 02:40:17;;;;;;;1.70;1.60;;;14.90;99.90;;;;;;5057304;28;20389;-84
2022/05/26 02:43:06;;;;;;;1.60;1.50;;;14.60;99.90;;;;;;5057054;28;20414;-83
2022/05/26 02:46:23;;;;;;;1.40;1.30;;;14.50;99.90;;;;;;5056978;28;20386;-83
2022/05/26 02:49:28;;;;;;;3.37;1.90;;;14.40;99.90;;;;;;5059324;28;20430;-83
2022/05/26 02:52:43;;;;;;;1.90;1.80;;;14.30;99.90;;;;;;5058631;28;20468;-83
2022/05/26 02:55:45;;;;;;;1.63;1.53;;;14.40;99.90;;;;;;5058890;28;20942;-83
2022/05/26 02:59:03;;;;;;;1.57;1.47;;;14.60;99.90;;;;;;5058887;28;20401;-83
2022/05/26 03:02:04;;;;;;;5.30;2.17;;;14.60;99.90;;;;;;5058864;28;20429;-83
2022/05/26 03:05:05;;;;;;;2.03;1.93;;;14.40;99.90;;;;;;5045176;28;20402;-83
2022/05/26 03:07:56;;;;;;;2.90;2.03;;;14.30;99.90;;;;;;5058155;28;20571;-83
2022/05/26 03:10:48;;;;;;;2.03;1.93;;;14.30;99.90;;;;;;5058717;28;20548;-83
2022/05/26 03:13:33;;;;;;;4.40;1.93;;;14.40;99.90;;;;;;5057923;28;20398;-83
2022/05/26 03:16:17;;;;;;;2.10;1.47;;;14.40;99.90;;;;;;5058272;28;20405;-83
2022/05/26 03:19:03;;;;;;;2.10;1.90;;;14.50;99.90;;;;;;5073528;28;20378;-83
2022/05/26 03:21:48;;;;;;;2.23;2.00;;;14.60;99.90;;;;;;5057445;28;20405;-83
2022/05/26 03:24:53;;;;;;;2.73;2.00;;;14.60;99.90;;;;;;5061560;28;20402;-83
2022/05/26 03:27:39;;;;;;;3.43;2.20;;;14.70;99.90;;;;;;5017407;28;20496;-83
2022/05/26 03:30:24;;;;;;;2.13;1.80;;;14.60;99.90;;;;;;4997202;28;20392;-83
2022/05/26 03:33:09;;;;;;;1.60;1.50;;;14.60;99.90;;;;;;5003850;28;20464;-84
2022/05/26 03:41:59;;;;;;;1.93;1.50;;;14.80;99.90;;;;;;5016328;28;20841;-83
2022/05/26 03:44:44;;;;;;;2.23;1.63;;;15.00;99.90;;;;;;5016282;28;20395;-83
2022/05/26 03:47:28;;;;;;;1.67;1.57;;;14.80;99.90;;;;;;5003628;28;20908;-83
2022/05/26 03:50:13;;;;;;;2.53;1.80;;;14.90;99.90;;;;;;4997682;28;20416;-83
2022/05/26 03:52:57;;;;;;;3.27;2.50;;;14.80;99.90;;;;;;4999864;28;20400;-83
2022/05/26 03:55:42;;;;;;;3.87;2.00;;;15.00;99.90;;;;;;4984846;28;20563;-83
2022/05/26 03:58:26;;;;;;;3.30;1.80;;;15.00;99.90;;;;;;5005542;28;20763;-83
2022/05/26 04:01:11;;;;;;;3.83;1.87;;;14.80;99.90;;;;;;5039298;28;20391;-83
2022/05/26 04:03:56;;;;;;;3.93;1.90;;;15.00;99.90;;;;;;5039343;28;20529;-83
2022/05/26 04:06:41;;;;;;;2.10;1.77;;;15.00;99.90;;;;;;5036291;28;20907;-83
2022/05/26 04:09:25;;;;;;;2.83;1.60;;;14.90;99.90;;;;;;5044077;28;20413;-83
2022/05/26 04:12:12;;;;;;;1.60;1.50;;;15.10;99.90;;;;;;5044794;28;20537;-83
2022/05/26 04:14:56;;;;;;;1.80;1.60;;;15.00;99.90;;;;;;5062854;28;20385;-83
2022/05/26 04:17:41;;;;;;;1.87;1.70;;;15.00;99.90;;;;;;5057255;28;20894;-82
2022/05/26 04:20:26;;;;;;;1.30;1.20;;;15.10;99.90;;;;;;5062192;28;20424;-82
2022/05/26 04:23:10;;;;;;;3.77;1.50;;;15.10;99.90;;;;;;5061891;28;20385;-82
2022/05/26 04:25:55;;;;;;;1.50;1.40;;;15.20;99.90;;;;;;5062100;28;20386;-82
2022/05/26 04:28:39;;;;;;;7.27;1.40;;;15.10;99.90;;;;;;5069064;28;20401;-79
2022/05/26 04:31:24;;;;;;;2.27;1.60;;;15.20;99.90;;;;;;5076020;28;20469;-82
2022/05/26 04:34:09;;;;;;;3.53;1.70;;;15.40;99.90;;;;;;5075858;28;20440;-83
2022/05/26 04:36:54;;;;;;;1.60;1.50;;;15.50;99.90;;;;;;5079673;28;20390;-83
2022/05/26 04:39:38;;;;;;;1.50;1.20;;;15.70;99.90;;;;;;5080017;28;20420;-80
2022/05/26 04:42:24;;;;;;;1.63;1.30;;;15.70;99.90;;;;;;5080017;28;20428;-81
2022/05/26 04:45:13;;;;;;;1.50;1.40;;;15.80;99.90;;;;;;5066246;28;20389;-83
2022/05/26 04:47:57;;;;;;;1.20;1.10;;;15.60;99.90;;;;;;5080750;28;20389;-80
2022/05/26 04:50:42;;;;;;;2.70;1.37;;;15.70;99.90;;;;;;5080490;28;20481;-82
2022/05/26 04:53:27;;;;;;;1.43;1.33;;;15.80;99.90;;;;;;5079912;28;20478;-79
2022/05/26 04:56:12;;;;;;;2.30;1.50;;;15.70;99.90;;;;;;5079755;28;20450;-82
2022/05/26 04:58:56;;;;;;;3.27;1.20;;;15.90;99.90;;;;;;5066058;28;20398;-83
2022/05/26 05:01:41;;;;;;;2.07;1.20;;;15.70;99.90;;;;;;5064670;28;20486;-80
2022/05/26 05:04:27;;;;;;;1.50;1.40;;;15.70;99.90;;;;;;5079338;28;20404;-83
2022/05/26 05:07:12;;;;;;;2.03;1.60;;;15.60;99.90;;;;;;5050065;28;20520;-85
2022/05/26 05:09:56;;;;;;;1.37;1.27;;;15.90;99.90;;;;;;5063224;28;20413;-82
2022/05/26 05:12:40;;;;;;;1.20;1.10;;;15.80;99.90;;;;;;5063563;28;20429;-83
2022/05/26 05:15:33;;;;;;;1.30;1.20;;;15.80;99.90;;;;;;5062446;28;20447;-82
2022/05/26 05:18:18;;;;;;;1.73;1.63;;;15.60;99.90;;;;;;5062050;28;20429;-83
2022/05/26 05:21:10;;;;;;;1.87;1.50;;;15.80;99.90;;;;;;5062024;28;20496;-82
2022/05/26 05:24:01;;;;;;;7.50;1.67;;;15.70;99.90;;;;;;5039829;28;20465;-83
2022/05/26 05:26:50;;;;;;;1.57;1.30;;;15.80;99.90;;;;;;5039186;28;20379;-83
2022/05/26 05:29:37;;;;;;;1.80;1.70;;;16.10;99.90;;;;;;5018152;28;20428;-84
2022/05/26 05:32:33;;;;;;;4.10;1.20;;;16.10;99.90;;;;;;5025299;28;20454;-83
2022/05/26 05:35:34;;;;;;;1.70;1.53;;;16.30;99.90;;;;;;5018904;28;20489;-83
2022/05/26 05:38:19;;;;;;;2.20;1.50;;;16.30;99.90;;;;;;5024949;28;20497;-83
2022/05/26 05:41:06;;;;;;;2.10;1.30;;;16.50;99.90;;;;;;5040029;28;20411;-84
2022/05/26 05:43:50;;;;;;;3.53;1.70;;;16.60;99.90;;;;;;5025006;28;20527;-82
2022/05/26 05:46:34;;;;;;;1.20;1.10;;;16.60;99.90;;;;;;5037576;28;20425;-82
2022/05/26 05:49:19;;;;;;;2.80;1.53;;;16.70;99.90;;;;;;5023993;28;20183;-82
2022/05/26 05:52:20;;;;;;;6.30;1.47;;;16.90;99.90;;;;;;5037545;28;20451;-82
2022/05/26 05:55:05;;;;;;;1.70;1.43;;;17.00;99.90;;;;;;5053808;28;20394;-82
2022/05/26 05:57:51;;;;;;;2.13;1.20;;;17.10;99.90;;;;;;5060006;28;20386;-82
2022/05/26 06:00:36;;;;;;;1.87;1.50;;;17.30;99.90;;;;;;5060365;28;20378;-82
2022/05/26 06:03:21;;;;;;;1.37;1.17;;;17.40;99.90;;;;;;5058647;28;20925;-83
2022/05/26 06:06:07;;;;;;;1.80;1.67;;;17.40;99.90;;;;;;5045547;28;20413;-83
2022/05/26 06:08:51;;;;;;;1.27;1.17;;;17.50;99.90;;;;;;5022705;28;20512;-82
2022/05/26 06:11:36;;;;;;;1.40;1.20;;;17.60;99.90;;;;;;5040711;28;20485;-83
2022/05/26 06:14:21;;;;;;;1.20;1.10;;;17.80;99.90;;;;;;5034509;28;20388;-84
2022/05/26 06:17:07;;;;;;;1.40;1.30;;;17.90;99.90;;;;;;5060874;28;20424;-84
2022/05/26 06:19:52;;;;;;;1.93;1.33;;;17.80;99.90;;;;;;5061433;28;20382;-84
2022/05/26 06:22:40;;;;;;;1.53;1.27;;;18.10;99.90;;;;;;5044944;28;20406;-84
2022/05/26 06:25:25;;;;;;;3.13;1.10;;;18.00;99.90;;;;;;5040243;28;20405;-83
2022/05/26 06:31:09;;;;;;;2.30;1.20;;;17.90;99.90;;;;;;5032669;28;20470;-83
2022/05/26 06:39:53;;;;;;;6.30;1.40;;;18.00;99.90;;;;;;5023486;28;20493;-83
2022/05/26 06:42:37;;;;;;;1.20;1.10;;;17.90;99.90;;;;;;5009685;28;20412;-83
2022/05/26 06:45:22;;;;;;;1.40;1.10;;;17.90;99.90;;;;;;5024450;28;20406;-83
2022/05/26 06:48:07;;;;;;;1.43;1.33;;;17.90;99.90;;;;;;5011126;28;20404;-83
2022/05/26 06:50:51;;;;;;;1.30;1.20;;;17.90;99.90;;;;;;5024631;28;20470;-84
2022/05/26 06:53:35;;;;;;;2.17;1.30;;;18.10;99.90;;;;;;5027239;28;20399;-83
2022/05/26 06:56:20;;;;;;;1.43;1.30;;;18.10;99.90;;;;;;5024569;28;20426;-83
2022/05/26 06:59:06;;;;;;;1.50;1.40;;;18.10;99.90;;;;;;5049156;28;20386;-83
2022/05/26 07:01:51;;;;;;;2.00;1.80;;;18.20;99.90;;;;;;5048046;28;20387;-83
2022/05/26 07:04:39;;;;;;;1.50;1.10;;;18.20;99.90;;;;;;5049224;28;20754;-83
2022/05/26 07:07:25;;;;;;;1.40;1.20;;;18.30;99.90;;;;;;5058473;28;20862;-83
2022/05/26 07:10:13;;;;;;;1.40;1.30;;;18.20;99.90;;;;;;5071188;28;20406;-83
2022/05/26 07:12:57;;;;;;;1.30;1.20;;;18.20;99.90;;;;;;5055951;28;20466;-83
2022/05/26 07:15:42;;;;;;;1.53;1.30;;;18.00;99.90;;;;;;5074086;28;20447;-82
2022/05/26 07:18:27;;;;;;;2.13;1.20;;;18.30;99.90;;;;;;5074403;28;20478;-79
2022/05/26 07:21:12;;;;;;;3.27;1.40;;;18.40;99.90;;;;;;5069542;28;20390;-83
2022/05/26 07:23:56;;;;;;;1.47;1.27;;;18.40;99.90;;;;;;5059490;28;20397;-84
2022/05/26 07:26:42;;;;;;;2.20;1.20;;;18.50;99.90;;;;;;5053266;28;20438;-83
2022/05/26 07:29:27;;;;;;;2.70;1.10;;;18.60;99.90;;;;;;5039524;28;20430;-82
2022/05/26 07:32:12;;;;;;;1.83;1.30;;;18.50;99.90;;;;;;5025408;28;20493;-83
2022/05/26 07:34:57;;;;;;;2.23;2.03;;;18.70;99.90;;;;;;5039997;28;20727;-82
2022/05/26 07:43:40;;;;;;;1.50;1.27;;;18.40;99.90;;;;;;5039044;28;20395;-83
2022/05/26 07:46:26;;;;;;;1.30;1.20;;;18.50;99.90;;;;;;5039083;28;20394;-83
2022/05/26 07:49:12;;;;;;;1.20;1.10;;;18.50;99.90;;;;;;5039740;28;20473;-83
2022/05/26 07:51:58;;;;;;;2.17;1.43;;;18.60;99.90;;;;;;5010265;28;20470;-84
2022/05/26 07:54:43;;;;;;;1.40;1.30;;;18.30;99.90;;;;;;5026760;28;20390;-82
2022/05/26 07:57:28;;;;;;;1.30;1.20;;;18.30;99.90;;;;;;5028393;28;20462;-83
2022/05/26 08:00:15;;;;;;;1.10;1.00;;;18.60;99.90;;;;;;5014430;28;20450;-82
2022/05/26 08:02:59;;;;;;;1.40;1.30;;;18.80;99.90;;;;;;5043667;28;20459;-83
2022/05/26 08:05:44;;;;;;;1.20;1.10;;;18.50;99.90;;;;;;5044463;28;20903;-83
2022/05/26 08:08:32;;;;;;;3.90;1.43;;;18.90;99.90;;;;;;5041979;28;20492;-82
2022/05/26 08:11:17;;;;;;;1.27;1.17;;;18.90;99.90;;;;;;5048603;28;20445;-82
2022/05/26 08:14:01;;;;;;;3.57;1.33;;;19.20;99.90;;;;;;5045709;28;20433;-81
2022/05/26 08:16:46;;;;;;;1.23;1.10;;;19.20;99.90;;;;;;5057810;28;20409;-81
2022/05/26 08:19:30;;;;;;;2.83;1.60;;;18.80;99.90;;;;;;5070490;28;20381;-81
2022/05/26 08:22:15;;;;;;;1.10;1.00;;;19.20;99.90;;;;;;5047323;28;20912;-82
2022/05/26 08:25:03;;;;;;;1.50;1.30;;;18.50;99.90;;;;;;5049792;28;20385;-81
2022/05/26 08:27:47;;;;;;;2.60;1.30;;;18.90;99.90;;;;;;5057258;28;20471;-80
2022/05/26 08:30:34;;;;;;;1.27;1.17;;;19.30;99.90;;;;;;5049920;28;20401;-81
2022/05/26 08:33:18;;;;;;;4.20;1.40;;;19.50;99.90;;;;;;5063053;28;20425;-81
2022/05/26 08:36:09;;;;;;;1.93;1.40;;;19.50;99.90;;;;;;5050204;28;20390;-82
2022/05/26 08:38:55;;;;;;;1.50;1.40;;;19.60;99.90;;;;;;5049725;28;20428;-83
2022/05/26 08:41:44;;;;;;;2.20;1.80;;;18.90;99.90;;;;;;5050676;28;20501;-82
2022/05/26 08:44:34;;;;;;;1.37;1.10;;;18.90;99.90;;;;;;5022563;28;20423;-82
2022/05/26 08:47:21;;;;;;;3.17;1.50;;;18.60;99.90;;;;;;4995872;28;20490;-81
2022/05/26 08:50:09;;;;;;;1.17;1.07;;;18.40;99.90;;;;;;5003730;28;20392;-80
2022/05/26 08:53:04;;;;;;;3.10;1.50;;;18.50;99.90;;;;;;5025026;28;20461;-82
2022/05/26 08:55:52;;;;;;;1.40;1.30;;;18.60;99.90;;;;;;5011175;28;20451;-82
2022/05/26 08:58:45;;;;;;;3.43;1.30;;;18.70;99.90;;;;;;5010529;28;20411;-82
2022/05/26 09:01:32;;;;;;;2.10;1.47;;;18.90;99.90;;;;;;5008874;28;20391;-82
2022/05/26 09:04:19;;;;;;;1.80;1.47;;;18.90;99.90;;;;;;4993281;28;20467;-83
2022/05/26 09:13:30;;;;;;;1.50;1.40;;;19.10;99.90;;;;;;4927538;29;20536;-82
2022/05/26 09:16:15;;;;;;;1.43;1.10;;;19.10;99.90;;;;;;4889935;29;21012;-83
2022/05/26 09:19:12;;;;;;;1.57;1.27;;;19.30;99.90;;;;;;4901238;29;20417;-83
2022/05/26 09:21:57;;;;;;;1.27;1.13;;;19.30;99.90;;;;;;4896288;29;20416;-81
2022/05/26 09:24:44;;;;;;;1.10;1.00;;;19.20;99.90;;;;;;4892228;29;20463;-83
2022/05/26 09:27:34;;;;;;;1.10;0.90;;;19.40;99.90;;;;;;4920558;29;20453;-81
2022/05/26 09:30:26;;;;;;;2.03;1.00;;;19.40;99.90;;;;;;4901099;29;20397;-83
2022/05/26 09:33:31;;;;;;;3.80;1.30;;;19.40;99.90;;;;;;4893166;29;20507;-79
2022/05/26 09:36:24;;;;;;;1.37;1.13;;;19.60;99.90;;;;;;4868536;29;20426;-82
2022/05/26 09:39:10;;;;;;;1.50;1.30;;;19.60;99.90;;;;;;4875978;29;20460;-83
2022/05/26 09:41:57;;;;;;;1.23;1.13;;;19.50;99.90;;;;;;4861066;29;20824;-81
2022/05/26 09:44:58;;;;;;;3.67;2.73;;;19.40;99.90;;;;;;4830846;29;20415;-83
2022/05/26 09:47:53;;;;;;;1.77;1.00;;;19.20;99.90;;;;;;4844784;29;20855;-81
2022/05/26 09:50:46;;;;;;;1.87;1.00;;;19.00;99.90;;;;;;4829948;29;20395;-82
2022/05/26 09:53:38;;;;;;;2.03;1.50;;;18.90;99.90;;;;;;4870245;29;20438;-80
2022/05/26 09:56:30;;;;;;;1.53;1.43;;;18.90;99.90;;;;;;4908908;29;20889;-80
2022/05/26 09:59:27;;;;;;;1.40;1.30;;;18.90;99.90;;;;;;4881147;29;20425;-80
2022/05/26 10:02:25;;;;;;;1.60;1.10;;;19.00;99.90;;;;;;4895451;29;20410;-80
2022/05/26 10:05:24;;;;;;;1.57;1.00;;;19.00;99.90;;;;;;4907018;29;20405;-82
2022/05/26 10:08:28;;;;;;;1.47;1.10;;;19.20;99.90;;;;;;4896245;29;20464;-79
2022/05/26 10:11:35;;;;;;;1.30;1.20;;;19.40;99.90;;;;;;4938871;29;20463;-80
2022/05/26 10:14:33;;;;;;;1.20;1.00;;;19.40;99.90;;;;;;4928606;29;20404;-78
2022/05/26 10:17:44;;;;;;;1.50;1.10;;;19.00;99.90;;;;;;4966059;28;20419;-79
2022/05/26 10:20:43;;;;;;;1.03;0.93;;;19.10;99.90;;;;;;4960317;28;20532;-79
2022/05/26 10:23:47;;;;;;;1.67;1.50;;;19.30;99.90;;;;;;5002623;28;20408;-79
2022/05/26 10:26:57;;;;;;;1.27;1.17;;;19.30;99.90;;;;;;5037784;28;20467;-81
2022/05/26 10:29:56;;;;;;;1.50;1.40;;;19.20;99.90;;;;;;5024507;28;20411;-80
2022/05/26 10:33:04;;;;;;;2.03;1.30;;;19.20;99.90;;;;;;5036233;28;20449;-80
2022/05/26 10:36:08;;;;;;;1.77;1.37;;;19.50;99.90;;;;;;4989674;28;20413;-81
2022/05/26 10:39:19;;;;;;;1.40;1.30;;;19.60;99.90;;;;;;5015837;28;20780;-79
2022/05/26 10:42:12;;;;;;;1.20;1.10;;;19.40;99.90;;;;;;5015553;28;20900;-80
2022/05/26 10:45:14;;;;;;;2.27;1.10;;;19.40;99.90;;;;;;5055443;28;20412;-79
2022/05/26 10:48:07;;;;;;;1.40;1.17;;;19.60;99.90;;;;;;5063819;28;20497;-81
2022/05/26 10:51:10;;;;;;;2.97;0.90;;;19.80;99.90;;;;;;5060685;28;20467;-81
2022/05/26 10:54:03;;;;;;;1.40;1.27;;;19.50;99.90;;;;;;5069730;28;20916;-81
2022/05/26 10:57:00;;;;;;;1.73;1.53;;;19.70;99.90;;;;;;5052761;28;20428;-82
2022/05/26 10:59:54;;;;;;;2.40;1.20;;;20.00;99.90;;;;;;5055193;28;20450;-82
2022/05/26 11:02:57;;;;;;;1.17;1.00;;;20.60;99.90;;;;;;5028105;28;20459;-81
2022/05/26 11:05:50;;;;;;;2.10;1.50;;;20.90;99.90;;;;;;5047450;28;20477;-82
2022/05/26 11:08:40;;;;;;;1.37;1.27;;;20.90;99.90;;;;;;5039595;28;20446;-81
2022/05/26 11:11:48;;;;;;;1.00;0.90;;;20.70;99.90;;;;;;5039204;28;20446;-82
2022/05/26 11:17:57;;;;;;;3.33;1.57;;;20.10;99.90;;;;;;5040405;28;20430;-81
2022/05/26 11:20:53;;;;;;;3.57;1.40;;;20.40;99.90;;;;;;4992493;28;20402;-81
2022/05/26 11:23:38;;;;;;;1.20;1.10;;;20.50;99.90;;;;;;5001940;28;20419;-82
2022/05/26 11:26:40;;;;;;;1.47;1.33;;;20.40;99.90;;;;;;5000674;28;20456;-79
2022/05/26 11:29:34;;;;;;;1.20;1.10;;;20.20;99.90;;;;;;4999992;28;20420;-82
2022/05/26 11:38:33;;;;;;;1.20;0.90;;;20.40;99.90;;;;;;4999187;28;20431;-80
2022/05/26 11:41:45;;;;;;;1.10;1.00;;;20.70;99.90;;;;;;5009783;28;20444;-82
2022/05/26 11:44:42;;;;;;;1.23;1.00;;;21.20;99.90;;;;;;5021066;28;20950;-79
2022/05/26 11:48:00;;;;;;;1.73;1.10;;;21.80;99.90;;;;;;5007084;28;20400;-79
2022/05/26 11:51:02;;;;;;;1.13;1.03;;;22.20;99.90;;;;;;5013753;28;20410;-80
2022/05/26 11:53:47;;;;;;;1.00;0.90;;;22.00;99.90;;;;;;5027790;28;20502;-81
2022/05/26 11:56:40;;;;;;;1.57;1.20;;;21.70;99.90;;;;;;5060413;28;20510;-83
2022/05/26 11:59:43;;;;;;;1.23;0.93;;;21.20;99.90;;;;;;5048867;28;20554;-79
2022/05/26 12:02:30;;;;;;;1.20;1.10;;;20.60;99.90;;;;;;5040528;28;20488;-82
2022/05/26 12:05:45;;;;;;;2.17;1.10;;;20.60;99.90;;;;;;5042560;28;20441;-81
2022/05/26 12:08:35;;;;;;;1.33;1.10;;;20.50;99.90;;;;;;5049068;28;20466;-82
2022/05/26 12:12:00;;;;;;;1.20;1.10;;;20.70;99.90;;;;;;5042806;28;20468;-82
2022/05/26 12:15:09;;;;;;;1.10;1.00;;;21.00;99.90;;;;;;5046724;28;20462;-82
2022/05/26 12:17:56;;;;;;;1.10;1.00;;;21.10;99.90;;;;;;4994671;28;20412;-82
2022/05/26 12:20:42;;;;;;;1.33;1.00;;;21.20;99.90;;;;;;5013617;28;20478;-81
2022/05/26 12:23:28;;;;;;;3.40;1.80;;;21.10;99.90;;;;;;5011287;28;20423;-82
2022/05/26 12:26:28;;;;;;;1.80;1.70;;;21.40;99.90;;;;;;5025956;28;20450;-82
2022/05/26 12:29:38;;;;;;;1.53;1.00;;;21.30;99.90;;;;;;5022729;28;20414;-82
2022/05/26 12:32:33;;;;;;;1.77;1.50;;;21.00;99.90;;;;;;5025785;28;20471;-83
2022/05/26 12:35:39;;;;;;;1.20;1.10;;;20.70;99.90;;;;;;5011548;28;20450;-82
2022/05/26 12:38:59;;;;;;;1.20;1.10;;;20.70;99.90;;;;;;5006774;28;20393;-80
2022/05/26 12:42:12;;;;;;;1.20;1.10;;;20.80;99.90;;;;;;5024067;28;20427;-81
2022/05/26 12:45:22;;;;;;;1.30;1.20;;;20.70;99.90;;;;;;5030536;28;20515;-82
2022/05/26 12:48:39;;;;;;;1.43;1.20;;;22.00;99.90;;;;;;4954934;29;20425;-82
2022/05/26 12:51:24;;;;;;;4.60;1.20;;;23.30;99.90;;;;;;4971049;29;20449;-82
2022/05/26 12:54:16;;;;;;;2.03;1.47;;;23.10;99.00;;;;;;4976829;28;20464;-82
2022/05/26 12:57:04;;;;;;;2.20;1.27;;;23.40;97.40;;;;;;5009071;28;20444;-82
2022/05/26 12:59:48;;;;;;;1.60;1.10;;;23.90;96.10;;;;;;4982652;28;20439;-81
2022/05/26 13:02:33;;;;;;;1.67;1.20;;;24.00;95.20;;;;;;4994161;28;20446;-82
2022/05/26 13:05:18;;;;;;;1.10;1.00;;;23.50;95.80;;;;;;5010922;28;20811;-82
2022/05/26 13:08:04;;;;;;;1.40;1.20;;;22.20;97.90;;;;;;5009760;28;20452;-81
2022/05/26 13:10:53;;;;;;;1.43;1.00;;;22.40;99.60;;;;;;5009838;28;20396;-81
2022/05/26 13:13:43;;;;;;;2.33;1.30;;;22.50;99.20;;;;;;4982091;28;20420;-81
2022/05/26 13:16:34;;;;;;;1.00;0.87;;;22.30;99.80;;;;;;5011470;28;20436;-82
2022/05/26 13:19:22;;;;;;;1.00;0.90;;;22.00;99.00;;;;;;4960314;28;20437;-82
2022/05/26 13:22:15;;;;;;;1.27;1.17;;;22.00;99.20;;;;;;4992156;28;20901;-83
2022/05/26 13:25:06;;;;;;;2.10;1.10;;;21.60;99.90;;;;;;4997226;28;20497;-79
2022/05/26 13:27:59;;;;;;;6.07;1.30;;;21.40;99.90;;;;;;5024443;28;20427;-81
2022/05/26 13:33:48;;;;;;;1.27;1.10;;;21.40;99.90;;;;;;5030061;28;20427;-82
2022/05/26 13:36:37;;;;;;;1.30;1.17;;;21.40;99.90;;;;;;5025401;28;20548;-82
2022/05/26 13:39:25;;;;;;;1.30;1.20;;;21.00;99.90;;;;;;4971237;29;20420;-80
2022/05/26 13:42:11;;;;;;;1.97;1.27;;;21.10;99.90;;;;;;4956283;29;20441;-83
2022/05/26 13:44:58;;;;;;;1.33;1.10;;;21.00;99.90;;;;;;4966302;28;20410;-83
2022/05/26 13:47:42;;;;;;;1.20;1.10;;;21.10;99.90;;;;;;4964284;28;20401;-83
2022/05/26 13:50:29;;;;;;;1.40;1.30;;;21.30;99.90;;;;;;5018387;28;20620;-80
2022/05/26 13:53:16;;;;;;;2.08;1.10;;;21.20;99.90;;;;;;5002839;28;20465;-82
2022/05/26 13:56:06;;;;;;;1.70;1.23;;;21.50;99.90;;;;;;5016794;28;20604;-82
2022/05/26 13:58:54;;;;;;;1.33;1.23;;;21.60;99.90;;;;;;5016435;28;20397;-82
2022/05/26 14:01:56;;;;;;;2.80;1.30;;;21.80;98.80;;;;;;4989977;28;20418;-82
2022/05/26 14:04:42;;;;;;;1.40;1.30;;;21.90;99.90;;;;;;4976711;28;20474;-81
2022/05/26 14:07:32;;;;;;;1.20;1.10;;;22.50;97.40;;;;;;4989578;28;20540;-83
2022/05/26 14:10:39;;;;;;;1.33;1.23;;;22.60;99.90;;;;;;4988339;28;20434;-79
2022/05/26 14:13:33;;;;;;;4.33;1.53;;;22.80;96.90;;;;;;4962958;28;20425;-82
2022/05/26 14:16:22;;;;;;;1.40;1.30;;;22.70;97.40;;;;;;4972626;28;20460;-82
2022/05/26 14:19:07;;;;;;;1.40;1.30;;;22.30;97.60;;;;;;5010981;28;20404;-81
2022/05/26 14:21:52;;;;;;;1.97;1.87;;;22.00;98.30;;;;;;5011031;28;20540;-80
2022/05/26 14:24:39;;;;;;;2.47;1.57;;;21.70;99.30;;;;;;5012245;28;20397;-81
2022/05/26 14:27:27;;;;;;;1.40;1.30;;;21.70;99.50;;;;;;4992157;28;20400;-80
2022/05/26 14:30:36;;;;;;;5.03;1.30;;;21.10;99.90;;;;;;5013816;28;20412;-81
2022/05/26 14:33:26;;;;;;;1.40;1.30;;;21.10;99.90;;;;;;5043928;28;20406;-80
2022/05/26 14:36:10;;;;;;;1.30;1.20;;;21.00;99.90;;;;;;5029997;28;20910;-82
2022/05/26 14:38:56;;;;;;;1.50;1.40;;;21.20;99.90;;;;;;5043792;28;20422;-82
2022/05/26 14:41:42;;;;;;;1.67;1.30;;;21.40;99.90;;;;;;5031461;28;20407;-78
2022/05/26 14:44:28;;;;;;;4.87;1.97;;;21.40;99.90;;;;;;5050829;28;20470;-80
2022/05/26 14:47:14;;;;;;;1.40;1.30;;;21.60;99.90;;;;;;5079915;28;20418;-82
2022/05/26 14:49:58;;;;;;;1.53;1.43;;;22.10;99.90;;;;;;5077188;28;20425;-84
2022/05/26 14:52:46;;;;;;;4.37;2.40;;;22.60;99.70;;;;;;5062169;28;20987;-82
2022/05/26 14:55:33;;;;;;;1.37;1.20;;;22.40;99.30;;;;;;5061677;28;20421;-84
2022/05/26 14:58:18;;;;;;;1.40;1.30;;;22.50;99.50;;;;;;5063735;28;20401;-83
2022/05/26 15:01:03;;;;;;;1.20;1.10;;;22.60;97.60;;;;;;5065110;28;20406;-83
2022/05/26 15:03:47;;;;;;;1.57;1.17;;;22.60;98.20;;;;;;5053706;28;20382;-84
2022/05/26 15:06:38;;;;;;;1.40;1.30;;;22.30;98.30;;;;;;5053907;28;20457;-83
2022/05/26 15:09:27;;;;;;;2.43;1.60;;;22.00;99.50;;;;;;5073938;28;20409;-84
2022/05/26 15:12:12;;;;;;;2.83;1.77;;;21.80;99.90;;;;;;5074048;28;20484;-83
2022/05/26 15:14:56;;;;;;;3.47;1.20;;;22.10;99.90;;;;;;5060316;28;20406;-83
2022/05/26 15:17:42;;;;;;;1.80;1.40;;;21.80;99.90;;;;;;5032438;28;20386;-82
2022/05/26 15:20:26;;;;;;;2.13;1.50;;;21.80;99.90;;;;;;5076064;28;20451;-83
2022/05/26 15:23:11;;;;;;;1.50;1.40;;;21.50;99.90;;;;;;5064463;28;20413;-82
2022/05/26 15:26:11;;;;;;;1.17;1.07;;;21.50;99.90;;;;;;5079298;28;20458;-80
2022/05/26 15:28:56;;;;;;;1.30;1.10;;;21.50;99.90;;;;;;5081848;28;20424;-81
2022/05/26 15:31:41;;;;;;;1.93;1.83;;;21.60;99.90;;;;;;5079348;28;20456;-83
2022/05/26 15:34:26;;;;;;;1.37;1.27;;;21.40;99.90;;;;;;5093037;28;20397;-82